Strong, Arkansas
Current Conditions -  °F | °C
As of 11:53 AM on Friday 19 Dec 2014 (Local Time) from KELD Reporting Station
Light Rain Light Rain  
Wind Chill: 39°   Ceiling: 8000
Heat Index: 44°   Visibility: 5mi
Dew Point: 42°   Wind: 10mph
Humidity: 93%   Direction: 60°ENE
Pressure: 30.22"   Gusts: NA
Location:  33.11°N, 92.33°W
Report Text: KELD 191753Z AUTO 06009KT 5SM -RA BR FEW008 SCT055 OVC080 07/06 A3022 RMK AO2 SLP233 P0014 60022 T00670056 10072 20061 58009
Loading
Personal Weather Stations






























Interactive Weather Map New forecast layout! Learn more

10-Day Weather Forecast

Advertisements
Track Severe Weather on mobile